Time;durP1;ratioP1;P1;durP2;ratioP2;P2;SDS_P1;SDS_P2;PMS_P1;PMS_P2;Temp;Humidity;BMP_temperature;BMP_pressure;BME280_temperature;BME280_humidity;BME280_pressure;Samples;Min_cycle;Max_cycle;Signal;HPM_P1;HPM_P2
2021/05/21 00:00:35;;;;;;;22.35;16.10;;;282.20;2278.40;;;;;;5052638;28;20033;-69
2021/05/21 00:03:01;;;;;;;18.58;14.48;;;282.20;2278.40;;;;;;5052883;28;20079;-69
2021/05/21 00:05:28;;;;;;;17.48;13.68;;;282.20;2278.40;;;;;;5052793;28;20403;-69
2021/05/21 00:07:54;;;;;;;18.52;14.13;;;282.20;2278.40;;;;;;5052835;28;20104;-69
2021/05/21 00:10:19;;;;;;;19.52;14.10;;;282.20;2278.40;;;;;;5052397;28;20045;-70
2021/05/21 00:12:45;;;;;;;20.25;14.75;;;282.20;2278.40;;;;;;5052310;28;20534;-68
2021/05/21 00:15:11;;;;;;;23.40;16.90;;;282.20;2278.40;;;;;;5052420;28;20024;-69
2021/05/21 00:17:37;;;;;;;19.40;13.27;;;282.20;2278.40;;;;;;5052362;28;20020;-69
2021/05/21 00:20:04;;;;;;;14.73;11.57;;;282.20;2278.40;;;;;;5052084;28;20041;-72
2021/05/21 00:22:30;;;;;;;12.23;8.50;;;282.20;2278.40;;;;;;5052075;28;20025;-69
2021/05/21 00:24:56;;;;;;;9.77;7.28;;;282.20;2278.40;;;;;;5052903;28;20471;-69
2021/05/21 00:27:22;;;;;;;10.93;7.80;;;282.20;2278.40;;;;;;5052107;28;20424;-69
2021/05/21 00:29:48;;;;;;;11.10;7.63;;;282.20;2278.40;;;;;;5052359;28;20112;-69
2021/05/21 00:32:13;;;;;;;10.50;7.57;;;282.20;2278.40;;;;;;5052421;28;20035;-68
2021/05/21 00:34:39;;;;;;;10.90;7.47;;;282.20;2278.40;;;;;;5052033;28;20079;-68
2021/05/21 00:37:05;;;;;;;9.77;6.93;;;282.20;2278.40;;;;;;5052099;28;20025;-69
2021/05/21 00:39:30;;;;;;;9.43;7.05;;;282.20;2278.40;;;;;;5051976;28;20120;-69
2021/05/21 00:41:56;;;;;;;9.70;7.40;;;282.10;2278.40;;;;;;5052151;28;20028;-72
2021/05/21 00:44:22;;;;;;;9.57;7.38;;;282.20;2278.40;;;;;;5052128;28;20051;-72
2021/05/21 00:46:49;;;;;;;11.60;7.10;;;282.20;2278.40;;;;;;5051823;28;20013;-69
2021/05/21 00:49:17;;;;;;;9.85;7.13;;;282.10;2278.40;;;;;;5052083;28;20024;-68
2021/05/21 00:51:47;;;;;;;9.40;7.50;;;282.10;2278.40;;;;;;5051580;28;20132;-68
2021/05/21 00:54:16;;;;;;;10.80;7.13;;;282.10;2278.40;;;;;;5052089;28;20025;-69
2021/05/21 00:56:43;;;;;;;9.85;7.30;;;282.10;2278.40;;;;;;5051758;28;20479;-68
2021/05/21 00:59:09;;;;;;;11.02;7.88;;;282.10;2278.40;;;;;;5051935;28;20032;-70
2021/05/21 01:01:35;;;;;;;10.20;7.65;;;282.10;2278.40;;;;;;5051612;28;20025;-70
2021/05/21 01:04:01;;;;;;;9.43;7.28;;;282.00;2278.40;;;;;;5052004;28;20070;-69
2021/05/21 01:06:27;;;;;;;9.07;7.22;;;282.00;2278.40;;;;;;5051842;28;20025;-70
2021/05/21 01:08:55;;;;;;;10.45;8.00;;;282.00;2278.40;;;;;;5051764;28;20047;-68
2021/05/21 01:11:21;;;;;;;9.85;7.22;;;282.00;2278.40;;;;;;5051857;28;20096;-69
2021/05/21 01:13:47;;;;;;;10.02;7.28;;;282.00;2278.40;;;;;;5051511;28;20100;-69
2021/05/21 01:16:13;;;;;;;9.65;7.25;;;282.00;2278.40;;;;;;5051838;28;20078;-70
2021/05/21 01:18:40;;;;;;;10.05;7.50;;;282.00;2278.40;;;;;;5051616;28;20025;-68
2021/05/21 01:21:05;;;;;;;11.98;7.22;;;282.00;2278.40;;;;;;5051624;28;20028;-68
2021/05/21 01:23:31;;;;;;;10.70;8.00;;;282.00;2278.40;;;;;;5051648;28;20021;-69
2021/05/21 01:25:58;;;;;;;10.80;8.05;;;282.00;2278.40;;;;;;5051680;28;20508;-69
2021/05/21 01:28:24;;;;;;;10.88;7.60;;;282.00;2278.40;;;;;;5051617;28;20021;-68
2021/05/21 01:30:50;;;;;;;11.45;7.72;;;282.00;2278.40;;;;;;5051865;28;20032;-69
2021/05/21 01:33:17;;;;;;;10.95;7.97;;;282.00;2278.40;;;;;;5053334;28;20021;-68
2021/05/21 01:35:43;;;;;;;11.65;7.97;;;282.10;2278.40;;;;;;5055653;28;20130;-69
2021/05/21 01:38:12;;;;;;;11.00;8.23;;;282.10;2278.40;;;;;;5055237;28;20031;-69
2021/05/21 01:40:38;;;;;;;11.13;8.15;;;282.20;2278.40;;;;;;5055326;28;20029;-68
2021/05/21 01:43:04;;;;;;;10.93;8.07;;;282.10;2278.40;;;;;;5055337;28;20025;-68
2021/05/21 01:45:30;;;;;;;10.88;8.40;;;282.20;2278.40;;;;;;5055094;28;20025;-69
2021/05/21 01:47:57;;;;;;;10.10;7.65;;;282.20;2278.40;;;;;;5055360;28;20025;-69
2021/05/21 01:50:23;;;;;;;11.90;8.75;;;282.20;2278.40;;;;;;5055157;28;20119;-68
2021/05/21 01:52:49;;;;;;;10.77;8.00;;;282.20;2278.40;;;;;;5054957;28;20562;-70
2021/05/21 01:55:15;;;;;;;10.95;7.82;;;282.20;2278.40;;;;;;5054901;28;20025;-69
2021/05/21 01:57:41;;;;;;;11.70;8.35;;;282.20;2278.40;;;;;;5055216;28;20029;-69
2021/05/21 02:00:09;;;;;;;11.50;8.38;;;282.20;2278.40;;;;;;5055035;28;20096;-69
2021/05/21 02:02:36;;;;;;;11.15;8.07;;;282.10;2278.40;;;;;;5054924;28;20025;-69
2021/05/21 02:05:06;;;;;;;11.98;8.65;;;282.00;2278.40;;;;;;5054752;28;20025;-68
2021/05/21 02:07:32;;;;;;;11.27;8.63;;;282.00;2278.40;;;;;;5055089;28;20021;-69
2021/05/21 02:10:07;;;;;;;12.43;9.13;;;282.00;2278.40;;;;;;5054997;28;20086;-68
2021/05/21 02:12:34;;;;;;;12.20;8.68;;;282.10;2278.40;;;;;;5054637;28;20033;-69
2021/05/21 02:15:03;;;;;;;12.63;8.82;;;282.00;2278.40;;;;;;5054833;28;20116;-69
2021/05/21 02:17:29;;;;;;;12.30;9.10;;;282.00;2278.40;;;;;;5054875;28;20365;-69
2021/05/21 02:20:00;;;;;;;12.55;8.77;;;282.00;2278.40;;;;;;5054703;28;20039;-68
2021/05/21 02:22:26;;;;;;;13.98;8.95;;;282.00;2278.40;;;;;;5054228;28;20551;-69
2021/05/21 02:24:55;;;;;;;13.02;9.13;;;282.00;2278.40;;;;;;5054663;28;20036;-68
2021/05/21 02:27:22;;;;;;;13.38;9.00;;;282.00;2278.40;;;;;;5054643;28;20036;-69
2021/05/21 02:29:47;;;;;;;12.75;8.90;;;282.10;2278.40;;;;;;5054343;28;20025;-68
2021/05/21 02:32:13;;;;;;;13.90;9.15;;;282.10;2278.40;;;;;;5054344;28;20029;-68
2021/05/21 02:34:39;;;;;;;12.80;9.50;;;282.20;2278.40;;;;;;5054438;28;20029;-68
2021/05/21 02:37:05;;;;;;;13.25;9.43;;;282.20;2278.40;;;;;;5054532;28;20491;-70
2021/05/21 02:39:30;;;;;;;13.85;9.70;;;282.10;2278.40;;;;;;5054127;28;20364;-69
2021/05/21 02:41:57;;;;;;;13.30;8.93;;;282.20;2278.40;;;;;;5052437;28;20472;-73
2021/05/21 02:44:22;;;;;;;12.95;9.57;;;282.20;2278.40;;;;;;5053506;28;20048;-72
2021/05/21 02:46:48;;;;;;;13.57;9.70;;;282.20;2278.40;;;;;;5053980;28;20056;-69
2021/05/21 02:49:20;;;;;;;14.23;9.68;;;282.20;2278.40;;;;;;5054008;28;20013;-68
2021/05/21 02:51:51;;;;;;;13.80;9.30;;;282.20;2278.40;;;;;;5053844;28;20411;-69
2021/05/21 02:54:17;;;;;;;;;;;282.20;2278.40;;;;;;5054248;28;20037;-68
2021/05/21 02:56:42;;;;;;;11.60;8.30;;;282.20;2278.40;;;;;;5053922;28;19908;-68
2021/05/21 02:59:08;;;;;;;13.30;9.30;;;282.20;2278.40;;;;;;5053777;28;20021;-69
2021/05/21 03:01:34;;;;;;;12.57;9.32;;;282.10;2278.40;;;;;;5054002;28;20032;-68
2021/05/21 03:04:00;;;;;;;12.57;9.02;;;282.10;2278.40;;;;;;5054124;28;20017;-68
2021/05/21 03:06:26;;;;;;;13.45;9.50;;;282.00;2278.40;;;;;;5053478;28;20447;-68
2021/05/21 03:08:53;;;;;;;13.02;9.35;;;282.00;2278.40;;;;;;5053847;28;20029;-69
2021/05/21 03:11:19;;;;;;;19.45;10.98;;;282.00;2278.40;;;;;;5053395;28;20100;-69
2021/05/21 03:13:44;;;;;;;67.85;24.60;;;282.10;2278.40;;;;;;5053504;28;20441;-68
2021/05/21 03:16:12;;;;;;;37.70;17.13;;;282.10;2278.40;;;;;;5053325;28;20022;-68
2021/05/21 03:18:37;;;;;;;26.10;12.85;;;282.10;2278.40;;;;;;5053693;28;20024;-68
2021/05/21 03:21:04;;;;;;;17.50;10.50;;;282.10;2278.40;;;;;;5053479;28;20543;-69
2021/05/21 03:23:30;;;;;;;13.20;9.75;;;282.20;2278.40;;;;;;5053105;28;20488;-68
2021/05/21 03:25:56;;;;;;;14.90;10.07;;;282.20;2278.40;;;;;;5053361;28;20025;-69
2021/05/21 03:28:21;;;;;;;13.73;9.65;;;282.20;2278.40;;;;;;5053091;28;20186;-68
2021/05/21 03:30:48;;;;;;;13.68;9.88;;;282.20;2278.40;;;;;;5053440;28;20028;-68
2021/05/21 03:33:14;;;;;;;13.77;10.23;;;282.30;2278.40;;;;;;5053264;28;20025;-69
2021/05/21 03:35:40;;;;;;;13.70;9.95;;;282.30;2278.40;;;;;;5053253;28;20491;-69
2021/05/21 03:38:07;;;;;;;15.30;9.68;;;282.40;2278.40;;;;;;5053032;28;20032;-69
2021/05/21 03:40:34;;;;;;;13.05;10.15;;;282.40;2278.40;;;;;;5052889;28;20063;-69
2021/05/21 03:43:00;;;;;;;12.98;9.18;;;282.40;2278.40;;;;;;5052968;28;20029;-70
2021/05/21 03:45:26;;;;;;;12.57;9.88;;;282.30;2278.40;;;;;;5052600;28;20546;-68
2021/05/21 03:47:52;;;;;;;12.50;9.82;;;282.40;2278.40;;;;;;5053015;28;20025;-68
2021/05/21 03:50:20;;;;;;;13.52;9.60;;;282.50;2278.40;;;;;;5052634;28;20025;-69
2021/05/21 03:52:47;;;;;;;13.80;9.70;;;282.50;2278.40;;;;;;5052724;28;20406;-69
2021/05/21 03:55:14;;;;;;;14.30;9.60;;;282.50;2278.40;;;;;;5051995;28;20025;-69
2021/05/21 03:57:40;;;;;;;12.93;10.35;;;282.50;2278.40;;;;;;5052938;28;20108;-69
2021/05/21 04:00:08;;;;;;;11.48;9.13;;;307.20;2304.00;;;;;;5052655;28;20033;-68
2021/05/21 04:02:34;;;;;;;12.73;9.40;;;307.20;2304.00;;;;;;5052384;28;20032;-68
2021/05/21 04:05:01;;;;;;;11.63;9.02;;;307.20;2304.00;;;;;;5052725;28;20025;-69
2021/05/21 04:07:26;;;;;;;13.73;8.98;;;307.30;2304.00;;;;;;5052373;28;20043;-69
2021/05/21 04:09:52;;;;;;;12.80;9.27;;;307.20;2304.00;;;;;;5052595;28;20472;-69
2021/05/21 04:12:18;;;;;;;10.75;8.75;;;307.30;2304.00;;;;;;5052378;28;20523;-68
2021/05/21 04:14:44;;;;;;;11.80;8.80;;;307.30;2304.00;;;;;;5052593;28;20135;-68
2021/05/21 04:17:09;;;;;;;10.93;8.77;;;307.40;2304.00;;;;;;5052418;28;20511;-68
2021/05/21 04:19:35;;;;;;;12.27;8.75;;;307.50;2304.00;;;;;;5052327;28;20391;-69
2021/05/21 04:22:01;;;;;;;12.65;7.70;;;307.60;2304.00;;;;;;5050479;28;20493;-68
2021/05/21 04:24:27;;;;;;;9.68;7.55;;;307.60;2304.00;;;;;;5052196;28;20025;-69
2021/05/21 04:26:52;;;;;;;11.10;7.82;;;307.60;2304.00;;;;;;5052392;28;20410;-68
2021/05/21 04:29:18;;;;;;;9.27;7.65;;;307.70;2304.00;;;;;;5052332;28;20029;-69
2021/05/21 04:31:44;;;;;;;12.02;8.00;;;307.80;2304.00;;;;;;5052244;28;20029;-68
2021/05/21 04:34:10;;;;;;;9.52;7.53;;;307.80;2304.00;;;;;;5052131;28;20538;-69
2021/05/21 04:36:35;;;;;;;11.63;8.02;;;307.80;2304.00;;;;;;5052074;28;20048;-69
2021/05/21 04:39:01;;;;;;;9.77;7.43;;;307.90;2304.00;;;;;;5052172;28;20024;-69
2021/05/21 04:41:27;;;;;;;10.00;7.30;;;308.00;2304.00;;;;;;5051930;28;20383;-68
2021/05/21 04:43:54;;;;;;;10.35;7.22;;;308.10;2304.00;;;;;;5052119;28;20021;-68
2021/05/21 04:46:20;;;;;;;10.60;7.35;;;308.00;2304.00;;;;;;5052151;28;20029;-68
2021/05/21 04:48:46;;;;;;;9.25;6.82;;;308.10;2304.00;;;;;;5051823;28;20025;-69
2021/05/21 04:51:11;;;;;;;8.80;7.05;;;332.80;2329.60;;;;;;5052067;28;20074;-68
2021/05/21 04:53:40;;;;;;;9.38;7.15;;;332.90;2329.60;;;;;;5052305;28;20480;-68
2021/05/21 04:56:07;;;;;;;10.68;7.30;;;332.90;2329.60;;;;;;5052034;28;20017;-68
2021/05/21 04:58:32;;;;;;;8.88;7.10;;;333.00;2329.60;;;;;;5051946;28;20037;-69
2021/05/21 05:00:58;;;;;;;8.85;6.47;;;333.00;2329.60;;;;;;5052029;28;20036;-69
2021/05/21 05:03:24;;;;;;;9.82;6.95;;;333.10;2329.60;;;;;;5034001;28;20190;-69
2021/05/21 05:05:50;;;;;;;8.45;6.43;;;333.20;2329.60;;;;;;5051838;28;20143;-68
2021/05/21 05:08:15;;;;;;;8.43;6.38;;;333.30;2329.60;;;;;;5055282;28;20017;-68
2021/05/21 05:10:45;;;;;;;9.23;6.82;;;333.30;2329.60;;;;;;5055798;28;20025;-69
2021/05/21 05:13:10;;;;;;;8.93;7.00;;;333.30;2329.60;;;;;;5042313;28;20483;-68
2021/05/21 05:15:37;;;;;;;9.98;6.68;;;333.40;2329.60;;;;;;5055891;28;20031;-69
2021/05/21 05:18:05;;;;;;;8.82;6.80;;;333.30;2329.60;;;;;;5055416;28;20059;-68
2021/05/21 05:20:30;;;;;;;9.38;6.80;;;333.40;2329.60;;;;;;5055793;28;20029;-68
2021/05/21 05:22:57;;;;;;;9.23;7.05;;;333.40;2329.60;;;;;;5055451;28;20116;-68
2021/05/21 05:25:23;;;;;;;11.10;7.05;;;333.30;2329.60;;;;;;5055805;28;20123;-68
2021/05/21 05:27:52;;;;;;;9.98;7.38;;;333.10;2329.60;;;;;;5055523;28;20075;-68
2021/05/21 05:30:19;;;;;;;9.88;7.03;;;333.10;2329.60;;;;;;5055427;28;20064;-69
2021/05/21 05:32:44;;;;;;;9.32;7.20;;;333.10;2329.60;;;;;;5055618;28;20029;-69
2021/05/21 05:35:10;;;;;;;10.93;7.00;;;333.10;2329.60;;;;;;5055050;28;20391;-68
2021/05/21 05:37:36;;;;;;;10.10;7.50;;;333.10;2329.60;;;;;;5055426;28;20017;-69
2021/05/21 05:40:03;;;;;;;10.20;7.28;;;333.10;2329.60;;;;;;5055031;28;20103;-68
2021/05/21 05:42:29;;;;;;;10.98;7.32;;;333.10;2329.60;;;;;;5055190;28;20020;-68
2021/05/21 05:44:55;;;;;;;9.13;6.90;;;333.10;2329.60;;;;;;5055312;28;20033;-68
2021/05/21 05:47:20;;;;;;;9.55;7.07;;;333.20;2329.60;;;;;;5055268;28;20391;-67
2021/05/21 05:49:46;;;;;;;8.43;6.78;;;333.20;2329.60;;;;;;5055093;28;20514;-73
2021/05/21 05:52:12;;;;;;;9.48;7.07;;;333.40;2329.60;;;;;;5054774;28;20083;-77
2021/05/21 05:54:37;;;;;;;8.68;6.88;;;333.50;2329.60;;;;;;5054780;28;20040;-70
2021/05/21 05:57:03;;;;;;;9.57;6.85;;;358.60;2329.60;;;;;;5054984;28;20033;-69
2021/05/21 05:59:30;;;;;;;8.93;6.30;;;359.30;2329.60;;;;;;5054617;28;20024;-70
2021/05/21 06:01:56;;;;;;;8.65;6.47;;;384.80;2329.60;;;;;;5055098;28;20032;-69
2021/05/21 06:04:22;;;;;;;13.45;8.68;;;410.20;2355.20;;;;;;5054610;28;20033;-69
2021/05/21 06:06:48;;;;;;;8.38;6.22;;;435.50;2355.20;;;;;;5054812;28;20041;-69
2021/05/21 06:09:14;;;;;;;6.70;6.00;;;436.10;2355.20;;;;;;5054645;28;20025;-69
2021/05/21 06:11:40;;;;;;;7.85;6.07;;;461.40;2380.80;;;;;;5054620;28;20024;-70
2021/05/21 06:14:06;;;;;;;7.45;5.90;;;461.50;2380.80;;;;;;5054624;28;20021;-69
2021/05/21 06:16:31;;;;;;;8.73;5.68;;;461.60;2380.80;;;;;;5054577;28;20029;-68
2021/05/21 06:18:57;;;;;;;7.75;5.93;;;486.50;2380.80;;;;;;5053636;28;20094;-68
2021/05/21 06:21:23;;;;;;;6.95;5.72;;;486.40;2380.80;;;;;;5054445;28;20048;-69
2021/05/21 06:23:49;;;;;;;7.88;5.60;;;486.50;2380.80;;;;;;5054533;28;20055;-68
2021/05/21 06:26:28;;;;;;;7.32;5.57;;;486.50;2380.80;;;;;;5054206;28;20498;-68
2021/05/21 06:28:54;;;;;;;6.13;5.15;;;486.50;2380.80;;;;;;5054324;28;20052;-69
2021/05/21 06:31:21;;;;;;;7.75;5.10;;;486.50;2380.80;;;;;;5054186;28;20051;-68
2021/05/21 06:33:47;;;;;;;7.90;5.13;;;461.30;2380.80;;;;;;5054161;28;20079;-68
2021/05/21 06:36:13;;;;;;;6.78;5.30;;;461.40;2380.80;;;;;;5054100;28;20032;-69
2021/05/21 06:38:40;;;;;;;6.50;5.20;;;461.30;2380.80;;;;;;5054798;28;20096;-68
2021/05/21 06:41:07;;;;;;;7.38;5.60;;;461.40;2380.80;;;;;;5054352;28;20021;-68
2021/05/21 06:43:33;;;;;;;7.65;5.30;;;486.50;2380.80;;;;;;5054265;28;20021;-68
2021/05/21 06:46:00;;;;;;;8.15;5.30;;;487.00;2380.80;;;;;;5054165;28;20023;-68
2021/05/21 06:48:29;;;;;;;6.60;5.60;;;486.80;2380.80;;;;;;5053711;28;20031;-68
2021/05/21 06:50:55;;;;;;;6.28;5.13;;;486.90;2380.80;;;;;;5053949;28;20392;-68
2021/05/21 06:53:22;;;;;;;6.95;5.05;;;486.50;2380.80;;;;;;5054283;28;20420;-68
2021/05/21 06:55:49;;;;;;;6.10;5.10;;;487.10;2380.80;;;;;;5054089;28;20047;-68
2021/05/21 06:58:15;;;;;;;6.85;5.60;;;487.20;2380.80;;;;;;5053871;28;20025;-68
2021/05/21 07:00:42;;;;;;;7.55;5.93;;;487.10;2380.80;;;;;;5053967;28;20032;-69
2021/05/21 07:03:08;;;;;;;6.38;5.57;;;486.90;2380.80;;;;;;5053794;28;20364;-68
2021/05/21 07:05:34;;;;;;;6.88;5.60;;;486.60;2380.80;;;;;;5053982;28;20017;-68
2021/05/21 07:08:00;;;;;;;7.22;5.70;;;486.40;2380.80;;;;;;5053558;28;20534;-68
2021/05/21 07:10:25;;;;;;;6.45;5.68;;;486.80;2380.80;;;;;;5053522;28;20104;-68
2021/05/21 07:12:51;;;;;;;7.35;5.03;;;487.10;2380.80;;;;;;5053388;28;20036;-69
2021/05/21 07:15:18;;;;;;;8.75;5.47;;;487.20;2380.80;;;;;;5053735;28;20083;-68
2021/05/21 07:17:45;;;;;;;6.82;5.47;;;487.30;2380.80;;;;;;5053318;28;20025;-68
2021/05/21 07:20:12;;;;;;;7.03;5.72;;;487.30;2380.80;;;;;;5053282;28;20321;-69
2021/05/21 07:22:38;;;;;;;7.60;6.00;;;487.10;2380.80;;;;;;5053092;28;20192;-69
2021/05/21 07:25:08;;;;;;;7.53;5.95;;;487.00;2380.80;;;;;;5053316;28;20116;-68
2021/05/21 07:27:34;;;;;;;8.95;6.22;;;512.20;2380.80;;;;;;5052974;28;20033;-69
2021/05/21 07:30:00;;;;;;;6.97;5.50;;;512.50;2380.80;;;;;;5052684;28;20395;-68
2021/05/21 07:32:26;;;;;;;7.70;5.75;;;512.70;2380.80;;;;;;5053047;28;20060;-69
2021/05/21 07:34:52;;;;;;;9.20;6.30;;;512.70;2380.80;;;;;;5052894;28;20087;-69
2021/05/21 07:37:18;;;;;;;6.82;5.40;;;512.80;2380.80;;;;;;5053004;28;20033;-68
2021/05/21 07:39:44;;;;;;;6.30;5.43;;;512.20;2380.80;;;;;;5053288;28;20045;-70
2021/05/21 07:42:09;;;;;;;7.03;5.50;;;512.60;2380.80;;;;;;5052636;28;20086;-69
2021/05/21 07:44:35;;;;;;;6.90;5.57;;;512.80;2380.80;;;;;;5046032;28;20111;-73
2021/05/21 07:47:01;;;;;;;6.22;5.28;;;512.70;2380.80;;;;;;5052197;28;20017;-75
2021/05/21 07:49:27;;;;;;;7.65;5.20;;;512.00;2380.80;;;;;;5037930;28;20056;-72
2021/05/21 07:51:54;;;;;;;6.78;5.25;;;512.10;2380.80;;;;;;5033674;28;20053;-68
2021/05/21 07:54:20;;;;;;;6.65;5.03;;;512.10;2380.80;;;;;;5035140;28;20025;-70
2021/05/21 07:56:46;;;;;;;6.00;4.97;;;512.30;2380.80;;;;;;5032999;28;20111;-68
2021/05/21 07:59:13;;;;;;;6.45;5.45;;;512.50;2380.80;;;;;;5033191;28;20049;-68
2021/05/21 08:01:40;;;;;;;5.93;5.10;;;512.70;2380.80;;;;;;5035201;28;20033;-69
2021/05/21 08:04:06;;;;;;;7.22;4.93;;;537.60;2406.40;;;;;;5036210;28;20014;-69
2021/05/21 08:06:33;;;;;;;6.93;4.85;;;537.60;2406.40;;;;;;5047156;28;20037;-69
2021/05/21 08:09:02;;;;;;;5.72;4.90;;;512.40;2380.80;;;;;;5052530;28;20118;-69
2021/05/21 08:11:28;;;;;;;7.35;5.45;;;512.40;2380.80;;;;;;5045592;28;20056;-68
2021/05/21 08:13:54;;;;;;;6.82;5.90;;;512.10;2380.80;;;;;;5051708;28;20053;-71
2021/05/21 08:16:19;;;;;;;8.63;6.60;;;512.30;2380.80;;;;;;5052433;28;20017;-69
2021/05/21 08:18:45;;;;;;;6.82;6.13;;;512.00;2380.80;;;;;;5051955;28;20096;-68
2021/05/21 08:21:11;;;;;;;7.93;6.20;;;512.00;2380.80;;;;;;5052157;28;20091;-68
2021/05/21 08:23:37;;;;;;;8.20;6.38;;;512.50;2380.80;;;;;;5051884;28;20051;-70
2021/05/21 08:26:06;;;;;;;5.90;4.55;;;512.80;2380.80;;;;;;5051205;28;20021;-69
2021/05/21 08:28:32;;;;;;;6.07;4.60;;;512.90;2380.80;;;;;;5051875;28;20108;-71
2021/05/21 08:30:57;;;;;;;5.22;4.20;;;512.90;2380.80;;;;;;5051960;28;20444;-73
2021/05/21 08:33:23;;;;;;;6.20;4.70;;;538.00;2406.40;;;;;;5052052;28;20097;-71
2021/05/21 08:35:49;;;;;;;7.35;4.78;;;538.00;2406.40;;;;;;5051628;28;20039;-71
2021/05/21 08:38:16;;;;;;;6.43;4.70;;;538.40;2406.40;;;;;;5051807;28;20430;-71
2021/05/21 08:40:41;;;;;;;5.95;4.07;;;563.40;2432.00;;;;;;5052126;28;20250;-70
2021/05/21 08:43:09;;;;;;;5.25;4.30;;;563.60;2432.00;;;;;;5051189;28;20029;-69
2021/05/21 08:45:36;;;;;;;5.70;4.32;;;564.00;2432.00;;;;;;5052266;28;20049;-71
2021/05/21 08:48:02;;;;;;;5.90;4.85;;;588.80;2432.00;;;;;;5051546;28;20391;-69
2021/05/21 08:50:29;;;;;;;6.70;4.55;;;589.00;2432.00;;;;;;5051291;28;20036;-67
2021/05/21 08:52:55;;;;;;;6.18;4.40;;;589.10;2432.00;;;;;;5051284;28;20107;-72
2021/05/21 08:55:21;;;;;;;6.50;4.65;;;589.10;2432.00;;;;;;5051729;28;20052;-69
2021/05/21 08:57:47;;;;;;;6.22;4.20;;;588.90;2432.00;;;;;;5051294;28;20029;-73
2021/05/21 09:00:14;;;;;;;6.32;4.88;;;589.00;2329.60;;;;;;5051561;28;20029;-69
2021/05/21 09:02:40;;;;;;;5.25;4.53;;;589.30;2329.60;;;;;;5051334;28;20021;-73
2021/05/21 09:05:10;;;;;;;5.65;4.45;;;589.40;2304.00;;;;;;5051440;28;20076;-73
2021/05/21 09:07:40;;;;;;;5.03;3.90;;;589.30;2278.40;;;;;;5051582;28;20087;-69
2021/05/21 09:10:14;;;;;;;5.70;3.95;;;589.10;2304.00;;;;;;5051942;28;20021;-69
2021/05/21 09:12:43;;;;;;;4.80;4.00;;;589.10;2304.00;;;;;;5051522;28;20029;-69
2021/05/21 09:15:11;;;;;;;5.18;3.70;;;589.40;2278.40;;;;;;5051567;28;20021;-69
2021/05/21 09:17:48;;;;;;;5.53;4.03;;;589.40;2252.80;;;;;;5051101;28;20510;-72
2021/05/21 09:20:22;;;;;;;9.25;4.78;;;589.40;2201.60;;;;;;5051404;28;20032;-72
2021/05/21 09:23:08;;;;;;;5.35;4.38;;;589.70;2304.00;;;;;;5051447;28;20454;-70
2021/05/21 09:25:37;;;;;;;5.45;4.00;;;589.70;2252.80;;;;;;5051529;28;20079;-76
2021/05/21 09:28:04;;;;;;;5.38;4.13;;;589.60;2227.20;;;;;;5051378;28;20017;-74
2021/05/21 09:30:29;;;;;;;5.88;4.07;;;589.40;2201.60;;;;;;5051195;28;20026;-75
2021/05/21 09:33:06;;;;;;;5.72;4.00;;;589.40;2227.20;;;;;;5033368;28;20033;-75
2021/05/21 09:35:31;;;;;;;4.78;3.78;;;589.40;2176.00;;;;;;5049406;28;20030;-75
2021/05/21 09:37:58;;;;;;;4.68;3.58;;;589.50;2150.40;;;;;;5051181;28;20025;-76
2021/05/21 09:40:28;;;;;;;5.28;3.25;;;589.40;2201.60;;;;;;5051081;28;20025;-71
2021/05/21 09:42:58;;;;;;;4.82;3.65;;;589.60;2201.60;;;;;;5051321;28;20052;-72
2021/05/21 09:45:39;;;;;;;5.68;4.00;;;589.30;2124.80;;;;;;5050947;28;20013;-71
2021/05/21 09:48:05;;;;;;;4.65;3.80;;;589.40;2150.40;;;;;;5051442;28;20030;-70
2021/05/21 09:50:32;;;;;;;6.72;3.70;;;588.90;2150.40;;;;;;5051140;28;20497;-73
2021/05/21 09:53:06;;;;;;;4.50;3.20;;;589.30;2176.00;;;;;;5051150;28;20055;-69
2021/05/21 09:55:41;;;;;;;4.07;3.05;;;589.00;2150.40;;;;;;5054680;28;20075;-70
2021/05/21 09:58:08;;;;;;;4.45;3.13;;;589.00;2150.40;;;;;;5052303;28;20090;-75
2021/05/21 10:00:35;;;;;;;4.22;3.00;;;589.00;2124.80;;;;;;5054583;28;20495;-74
2021/05/21 10:03:02;;;;;;;4.63;3.00;;;588.90;2124.80;;;;;;5055425;28;20029;-72
2021/05/21 10:05:28;;;;;;;4.55;3.30;;;588.80;2150.40;;;;;;5050205;28;20021;-76
2021/05/21 10:07:55;;;;;;;5.80;3.50;;;588.80;2099.20;;;;;;5036305;28;20045;-72
2021/05/21 10:10:24;;;;;;;4.75;3.30;;;564.10;2150.40;;;;;;5054467;28;20476;-72
2021/05/21 10:12:50;;;;;;;6.07;3.45;;;564.10;2176.00;;;;;;5054474;28;20029;-76
2021/05/21 10:15:16;;;;;;;5.55;3.40;;;588.80;2150.40;;;;;;5054708;28;20029;-75
2021/05/21 10:17:44;;;;;;;5.07;3.00;;;589.10;2150.40;;;;;;5053838;28;20430;-72
2021/05/21 10:20:13;;;;;;;4.38;3.30;;;589.40;2176.00;;;;;;5053440;28;20040;-75
2021/05/21 10:22:41;;;;;;;4.65;3.40;;;589.50;2048.00;;;;;;5052718;28;20021;-74
2021/05/21 10:25:15;;;;;;;4.10;3.28;;;589.70;2048.00;;;;;;5037190;28;20032;-72
2021/05/21 10:27:43;;;;;;;4.32;3.13;;;589.40;1996.80;;;;;;5035860;28;20021;-71
2021/05/21 10:30:10;;;;;;;4.82;3.08;;;589.60;1996.80;;;;;;5035460;28;20049;-72
2021/05/21 10:32:37;;;;;;;5.00;2.95;;;589.70;1996.80;;;;;;5034616;28;20022;-72
2021/05/21 10:35:22;;;;;;;4.43;3.25;;;614.50;1996.80;;;;;;5034960;28;20022;-72
2021/05/21 10:37:48;;;;;;;5.30;3.40;;;614.40;1971.20;;;;;;5033885;28;20050;-72
2021/05/21 10:40:27;;;;;;;4.05;3.22;;;614.40;2022.40;;;;;;5038867;28;20022;-70
2021/05/21 10:42:52;;;;;;;3.90;3.22;;;589.70;1920.00;;;;;;5035794;28;20060;-71
2021/05/21 10:45:23;;;;;;;5.00;3.20;;;589.60;1945.60;;;;;;5048401;28;20334;-70
2021/05/21 10:48:00;;;;;;;3.97;3.00;;;589.60;1996.80;;;;;;5034778;28;20052;-71
2021/05/21 10:50:34;;;;;;;7.55;2.92;;;589.70;1945.60;;;;;;5049553;28;20021;-75
2021/05/21 10:53:07;;;;;;;4.63;3.22;;;614.50;1894.40;;;;;;5054001;28;20037;-76
2021/05/21 10:55:52;;;;;;;6.53;3.53;;;614.60;1945.60;;;;;;5035925;28;20035;-79
2021/05/21 10:58:31;;;;;;;4.13;3.28;;;614.60;1945.60;;;;;;5053768;28;20502;-78
2021/05/21 11:01:16;;;;;;;4.60;3.28;;;614.40;1920.00;;;;;;5053682;28;20032;-80
2021/05/21 11:04:06;;;;;;;5.32;2.90;;;614.40;1920.00;;;;;;5034921;28;20041;-77
2021/05/21 11:06:42;;;;;;;5.78;2.85;;;589.70;1894.40;;;;;;5051840;28;20480;-78
2021/05/21 11:09:13;;;;;;;4.28;2.75;;;614.50;1868.80;;;;;;5053422;28;20102;-76
2021/05/21 11:12:04;;;;;;;6.72;4.25;;;614.70;1817.60;;;;;;5053426;28;20024;-75
2021/05/21 11:14:30;;;;;;;;;;;614.60;1817.60;;;;;;5044165;28;20075;-70
2021/05/21 11:16:58;;;;;;;5.28;3.10;;;614.40;1868.80;;;;;;5054187;28;19957;-73
2021/05/21 11:19:27;;;;;;;4.70;3.40;;;614.50;1894.40;;;;;;5053595;28;20109;-71
2021/05/21 11:22:12;;;;;;;4.05;3.10;;;614.60;1843.20;;;;;;5054212;28;20155;-75
2021/05/21 11:24:43;;;;;;;4.38;2.70;;;614.80;1868.80;;;;;;5054619;28;20031;-71
2021/05/21 11:27:11;;;;;;;4.75;3.13;;;614.70;1766.40;;;;;;5054418;28;20078;-71
2021/05/21 11:29:41;;;;;;;7.05;2.70;;;614.80;1817.60;;;;;;5050059;28;20038;-71
2021/05/21 11:32:07;;;;;;;3.67;2.70;;;615.00;1766.40;;;;;;5037576;28;20456;-73
2021/05/21 11:34:33;;;;;;;3.90;2.90;;;615.00;1792.00;;;;;;5050568;28;20056;-71
2021/05/21 11:36:58;;;;;;;4.55;2.60;;;615.00;1792.00;;;;;;5053456;28;20392;-74
2021/05/21 11:39:26;;;;;;;4.15;2.75;;;615.10;1766.40;;;;;;5052456;28;20373;-74
2021/05/21 11:41:53;;;;;;;4.22;2.70;;;615.00;1766.40;;;;;;5052374;28;20542;-75
2021/05/21 11:44:23;;;;;;;5.05;2.88;;;614.80;1715.20;;;;;;5052970;28;20017;-74
2021/05/21 11:46:56;;;;;;;4.03;2.60;;;614.40;1715.20;;;;;;5052317;28;20021;-74
2021/05/21 11:49:23;;;;;;;3.70;2.63;;;614.60;1740.80;;;;;;5052656;28;20036;-73
2021/05/21 11:51:54;;;;;;;3.90;2.67;;;614.70;1766.40;;;;;;5052017;28;20135;-73
2021/05/21 11:54:20;;;;;;;;;;;614.50;1740.80;;;;;;5052768;28;20089;-74
2021/05/21 11:56:46;;;;;;;3.83;2.58;;;614.40;1689.60;;;;;;5051616;28;19909;-70
2021/05/21 11:59:18;;;;;;;3.55;2.80;;;614.40;1740.80;;;;;;5051714;28;20372;-71
2021/05/21 12:01:59;;;;;;;3.47;2.70;;;614.40;1766.40;;;;;;5051095;28;20029;-79
2021/05/21 12:04:40;;;;;;;4.45;2.97;;;614.40;1740.80;;;;;;5052011;28;20031;-79
2021/05/21 12:07:06;;;;;;;3.63;2.63;;;589.70;1766.40;;;;;;5044134;28;20025;-72
2021/05/21 12:09:32;;;;;;;4.15;2.50;;;589.70;1766.40;;;;;;5051703;28;20039;-72
2021/05/21 12:11:59;;;;;;;4.40;2.80;;;589.70;1766.40;;;;;;5052302;28;20017;-72
2021/05/21 12:14:27;;;;;;;4.50;2.60;;;614.40;1766.40;;;;;;5052448;28;20025;-73